Weather at Banaina Airport

Public forecast

Using degrees Celsius for public forecast. Weather courtesy of forecast.io.

Closest aviation weather report (METAR) to Banaina Airport

Closest report is Juwata Airport, 44.9 nm (83.2 km) NE. Retrieved 2021/10/23 03:00 UTC (26 minutes ago):

WAQQ 230300Z 29004KT 9999 SCT015 BKN170 28/24 Q1012 NOSIG

Closest aviation forecast (TAF) to Banaina Airport

Forecast is more than 12 hours old.

Closest forecast is Tanjung Harapan Airport, 16.3 nm (30.2 km) ENE. Retrieved 2015/03/28 06:00 UTC (7 years ago):

TAF WALG 280500Z 2806/2818 12010KT 9999 SCT015 TEMPO 2815/2818 7000 RA FEW015CB SCT018